Time;durP1;ratioP1;P1;durP2;ratioP2;P2;SDS_P1;SDS_P2;PMS_P1;PMS_P2;Temp;Humidity;BMP_temperature;BMP_pressure;BME280_temperature;BME280_humidity;BME280_pressure;Samples;Min_cycle;Max_cycle;Signal;HPM_P1;HPM_P2
2023/03/27 00:03:13;;;;;;;0.05;0.05;;;;;;;1.50;100.00;101154.22;10524437;28;20052;-78
2023/03/27 00:08:16;;;;;;;0.00;0.00;;;;;;;1.39;100.00;101158.56;10544848;28;20059;-78
2023/03/27 00:13:18;;;;;;;0.00;0.00;;;;;;;1.44;100.00;101157.25;10529214;28;20104;-78
2023/03/27 00:18:20;;;;;;;0.00;0.00;;;;;;;1.48;100.00;101159.19;10531770;28;20458;-77
2023/03/27 00:23:22;;;;;;;0.00;0.00;;;;;;;1.34;100.00;101175.16;10526974;28;20067;-78
2023/03/27 00:28:27;;;;;;;0.10;0.10;;;;;;;1.32;100.00;101172.53;10538621;28;20486;-78
2023/03/27 00:33:29;;;;;;;0.60;0.20;;;;;;;1.24;100.00;101176.22;10539414;28;20052;-78
2023/03/27 00:38:31;;;;;;;0.00;0.00;;;;;;;1.25;100.00;101170.34;10555207;28;20089;-78
2023/03/27 00:43:34;;;;;;;0.00;0.00;;;;;;;1.34;100.00;101176.03;10500453;28;20052;-78
2023/03/27 00:48:36;;;;;;;0.00;0.00;;;;;;;1.27;100.00;101173.84;10508693;28;20069;-77
2023/03/27 00:53:38;;;;;;;0.20;0.20;;;;;;;1.18;100.00;101179.19;10566020;28;20071;-78
2023/03/27 00:58:47;;;;;;;0.00;0.00;;;;;;;1.21;100.00;101169.28;10542730;28;20088;-82
2023/03/27 01:03:50;;;;;;;0.00;0.00;;;;;;;1.01;100.00;101183.13;10546977;28;20056;-81
2023/03/27 01:08:52;;;;;;;0.00;0.00;;;;;;;0.95;100.00;101175.97;10526106;28;20036;-82
2023/03/27 01:14:20;;;;;;;0.00;0.00;;;;;;;1.17;100.00;101182.50;10535520;28;20048;-82
2023/03/27 01:19:40;;;;;;;0.47;0.10;;;;;;;1.06;100.00;101179.25;10519971;28;20036;-82
2023/03/27 01:25:00;;;;;;;0.00;0.00;;;;;;;0.99;100.00;101186.34;10528636;28;20075;-81
2023/03/27 01:30:11;;;;;;;0.00;0.00;;;;;;;0.95;100.00;101183.56;10526440;28;20495;-82
2023/03/27 01:35:41;;;;;;;0.05;0.05;;;;;;;0.95;100.00;101186.13;10510144;28;20050;-81
2023/03/27 01:41:03;;;;;;;0.90;0.90;;;;;;;0.92;100.00;101190.09;10527961;28;20048;-82
2023/03/27 01:46:16;;;;;;;0.00;0.00;;;;;;;0.87;100.00;101186.38;10538129;28;20031;-82
2023/03/27 01:51:38;;;;;;;0.08;0.08;;;;;;;0.71;100.00;101200.50;10559903;28;20039;-82
2023/03/27 01:56:56;;;;;;;0.10;0.10;;;;;;;0.82;100.00;101193.66;10530336;28;20402;-82
2023/03/27 02:02:08;;;;;;;0.00;0.00;;;;;;;0.80;100.00;101200.25;10526898;28;20066;-81
2023/03/27 02:07:14;;;;;;;0.00;0.00;;;;;;;0.73;100.00;101200.59;10544183;28;20138;-78
2023/03/27 02:12:26;;;;;;;0.20;0.20;;;;;;;0.71;100.00;101200.50;10565047;28;20039;-78
2023/03/27 02:17:32;;;;;;;0.00;0.00;;;;;;;0.50;100.00;101210.00;10550381;28;20047;-78
2023/03/27 02:22:34;;;;;;;0.00;0.00;;;;;;;0.80;100.00;101207.88;10517928;28;20135;-78
2023/03/27 02:27:46;;;;;;;0.00;0.00;;;;;;;0.82;100.00;101213.94;10522143;28;20047;-78
2023/03/27 02:33:02;;;;;;;0.05;0.05;;;;;;;0.80;100.00;101223.09;10515042;28;20043;-78
2023/03/27 02:38:23;;;;;;;0.13;0.10;;;;;;;0.63;100.00;101227.84;10567243;28;20433;-78
2023/03/27 02:43:34;;;;;;;0.15;0.15;;;;;;;0.72;100.00;101234.34;10564776;28;20552;-77
2023/03/27 02:48:44;;;;;;;0.08;0.08;;;;;;;0.74;100.00;101240.41;10536356;28;20040;-79
2023/03/27 02:53:57;;;;;;;0.20;0.20;;;;;;;0.57;100.00;101245.16;10552847;28;20097;-79
2023/03/27 02:59:03;;;;;;;0.00;0.00;;;;;;;0.81;100.00;101250.22;10544834;28;20116;-79
2023/03/27 03:04:40;;;;;;;0.00;0.00;;;;;;;0.46;100.00;101269.75;10541831;28;20044;-78
2023/03/27 03:09:43;;;;;;;0.00;0.00;;;;;;;0.48;100.00;101257.19;10559429;28;20036;-82
2023/03/27 03:14:45;;;;;;;3.72;2.83;;;;;;;0.41;100.00;101262.59;10537999;28;20081;-82
2023/03/27 03:19:48;;;;;;;0.00;0.00;;;;;;;0.71;100.00;101250.38;10532795;28;20044;-81
2023/03/27 03:24:49;;;;;;;0.00;0.00;;;;;;;0.71;100.00;101265.59;10519814;28;20044;-81
2023/03/27 03:29:52;;;;;;;0.00;0.00;;;;;;;0.64;100.00;101266.78;10521704;28;20121;-81
2023/03/27 03:35:00;;;;;;;0.00;0.00;;;;;;;0.44;100.00;101281.44;10517329;28;20105;-78
2023/03/27 03:40:10;;;;;;;0.00;0.00;;;;;;;0.49;100.00;101286.81;10523827;28;20407;-78
2023/03/27 03:45:16;;;;;;;0.85;0.70;;;;;;;0.50;100.00;101283.53;10524229;28;20048;-78
2023/03/27 03:50:18;;;;;;;0.00;0.00;;;;;;;0.51;100.00;101292.91;10522578;28;20157;-79
2023/03/27 03:55:20;;;;;;;0.00;0.00;;;;;;;0.50;100.00;101301.28;10522729;28;20048;-78
2023/03/27 04:00:23;;;;;;;0.00;0.00;;;;;;;0.92;100.00;101305.16;10506298;28;20044;-79
2023/03/27 04:05:29;;;;;;;0.00;0.00;;;;;;;0.91;100.00;101311.00;10532727;28;20054;-77
2023/03/27 04:10:34;;;;;;;0.00;0.00;;;;;;;0.86;100.00;101319.91;10557896;28;20130;-78
2023/03/27 04:15:39;;;;;;;0.00;0.00;;;;;;;0.95;100.00;101323.13;10586722;27;20396;-79
2023/03/27 04:20:48;;;;;;;0.00;0.00;;;;;;;1.09;100.00;101325.75;10507686;28;20094;-78
2023/03/27 04:25:52;;;;;;;0.00;0.00;;;;;;;1.17;100.00;101339.00;10505315;28;20564;-78
2023/03/27 04:31:06;;;;;;;0.20;0.20;;;;;;;1.50;100.00;101329.44;10508012;28;20131;-78
2023/03/27 04:36:43;;;;;;;0.00;0.00;;;;;;;1.72;100.00;101331.81;10524820;28;20048;-78
2023/03/27 04:41:48;;;;;;;0.10;0.10;;;;;;;1.78;100.00;101337.31;10535430;28;20098;-77
2023/03/27 04:46:50;;;;;;;0.00;0.00;;;;;;;1.88;100.00;101337.16;10535512;28;20043;-78
2023/03/27 04:51:52;;;;;;;0.00;0.00;;;;;;;1.93;100.00;101342.56;10535109;28;20044;-78
2023/03/27 04:57:02;;;;;;;0.00;0.00;;;;;;;1.97;100.00;101338.56;10552074;28;20513;-78
2023/03/27 05:02:05;;;;;;;0.10;0.10;;;;;;;1.89;100.00;101345.66;10535365;28;20101;-78
2023/03/27 05:07:16;;;;;;;0.38;0.08;;;;;;;1.79;100.00;101359.38;10508211;28;20049;-78
2023/03/27 05:12:20;;;;;;;0.00;0.00;;;;;;;1.45;100.00;101374.84;10508266;28;20044;-78
2023/03/27 05:17:26;;;;;;;0.00;0.00;;;;;;;1.08;100.00;101379.84;10534708;28;20044;-78
2023/03/27 05:22:28;;;;;;;0.00;0.00;;;;;;;1.22;100.00;101384.25;10516362;28;20045;-78
2023/03/27 05:27:45;;;;;;;0.00;0.00;;;;;;;1.18;100.00;101397.47;10536098;28;20044;-78
2023/03/27 05:32:51;;;;;;;0.00;0.00;;;;;;;1.17;100.00;101398.25;10555467;28;20044;-78
2023/03/27 05:38:00;;;;;;;0.00;0.00;;;;;;;0.85;100.00;101412.03;10492847;28;20466;-78
2023/03/27 05:43:07;;;;;;;0.00;0.00;;;;;;;0.76;100.00;101401.22;10503060;28;20144;-78
2023/03/27 05:48:10;;;;;;;0.00;0.00;;;;;;;0.71;100.00;101412.69;10503242;28;20483;-78
2023/03/27 05:53:14;;;;;;;0.00;0.00;;;;;;;1.02;100.00;101420.88;10503096;28;20045;-77
2023/03/27 05:58:27;;;;;;;0.05;0.05;;;;;;;1.63;100.00;101409.91;10528005;28;20079;-78
2023/03/27 06:03:36;;;;;;;0.00;0.00;;;;;;;1.97;100.00;101430.06;10543667;28;20402;-79
2023/03/27 06:08:45;;;;;;;0.00;0.00;;;;;;;2.11;100.00;101439.50;10510570;28;20076;-78
2023/03/27 06:13:46;;;;;;;0.00;0.00;;;;;;;2.28;100.00;101415.22;10548197;28;20048;-78
2023/03/27 06:18:52;;;;;;;0.00;0.00;;;;;;;2.51;100.00;101405.72;10543885;28;20044;-78
2023/03/27 06:23:55;;;;;;;0.00;0.00;;;;;;;2.87;100.00;101420.78;10568426;28;20043;-78
2023/03/27 06:28:57;;;;;;;0.00;0.00;;;;;;;2.87;100.00;101436.06;10601926;27;20040;-78
2023/03/27 06:34:00;;;;;;;0.00;0.00;;;;;;;2.77;100.00;101457.44;10533436;28;20051;-78
2023/03/27 06:39:20;;;;;;;0.00;0.00;;;;;;;2.90;100.00;101466.78;10542388;28;20092;-79
2023/03/27 06:44:25;;;;;;;0.00;0.00;;;;;;;2.80;100.00;101470.38;10529035;28;20044;-79
2023/03/27 06:49:46;;;;;;;0.10;0.10;;;;;;;2.98;100.00;101468.16;10561553;28;20119;-79
2023/03/27 06:54:54;;;;;;;0.00;0.00;;;;;;;3.30;100.00;101483.00;10538721;28;20098;-78
2023/03/27 06:59:56;;;;;;;0.00;0.00;;;;;;;2.97;100.00;101500.38;10532863;28;20047;-79
2023/03/27 07:05:21;;;;;;;0.00;0.00;;;;;;;3.83;100.00;101477.78;10525460;28;20094;-83
2023/03/27 07:10:24;;;;;;;0.60;0.45;;;;;;;3.94;100.00;101507.38;10536014;28;20046;-84
2023/03/27 07:15:28;;;;;;;0.00;0.00;;;;;;;2.93;100.00;101515.34;10554815;28;20039;-83
2023/03/27 07:20:33;;;;;;;0.00;0.00;;;;;;;3.95;100.00;101515.09;10530471;28;20067;-83
2023/03/27 07:25:40;;;;;;;0.00;0.00;;;;;;;4.09;100.00;101543.16;10543126;28;20101;-83
2023/03/27 07:30:48;;;;;;;1.35;1.25;;;;;;;4.00;100.00;101563.84;10512710;28;20064;-83
2023/03/27 07:35:54;;;;;;;0.00;0.00;;;;;;;4.85;100.00;101552.84;10503612;28;20051;-83
2023/03/27 07:41:10;;;;;;;0.00;0.00;;;;;;;5.18;100.00;101576.94;10525461;28;20558;-83
2023/03/27 07:46:30;;;;;;;0.10;0.10;;;;;;;5.74;100.00;101599.69;10535723;28;20040;-83
2023/03/27 07:51:37;;;;;;;0.00;0.00;;;;;;;5.58;100.00;101629.47;10530704;28;20040;-83
2023/03/27 07:56:40;;;;;;;0.10;0.10;;;;;;;5.15;100.00;101676.38;10541733;28;20044;-83
2023/03/27 08:02:02;;;;;;;1.35;0.57;;;;;;;6.07;100.00;101656.16;10533103;28;20060;-83
2023/03/27 08:07:05;;;;;;;0.00;0.00;;;;;;;5.94;100.00;101688.66;10529509;28;20044;-83
2023/03/27 08:12:09;;;;;;;0.00;0.00;;;;;;;6.51;100.00;101702.13;10522794;28;20051;-83
2023/03/27 08:17:15;;;;;;;0.00;0.00;;;;;;;6.76;100.00;101723.06;10540296;28;20043;-83
2023/03/27 08:22:23;;;;;;;0.00;0.00;;;;;;;6.97;100.00;101738.72;10554484;28;20044;-83
2023/03/27 08:27:43;;;;;;;0.30;0.30;;;;;;;6.76;100.00;101751.22;10552829;28;20047;-83
2023/03/27 08:32:48;;;;;;;0.00;0.00;;;;;;;7.06;100.00;101753.69;10537734;28;20048;-83
2023/03/27 08:37:51;;;;;;;0.20;0.10;;;;;;;7.08;100.00;101777.75;10574864;28;20055;-81
2023/03/27 08:43:14;;;;;;;1.70;0.97;;;;;;;5.84;100.00;101788.66;10524584;28;20043;-82
2023/03/27 08:48:20;;;;;;;0.00;0.00;;;;;;;7.28;100.00;101789.94;10522551;28;20082;-82
2023/03/27 08:53:40;;;;;;;0.00;0.00;;;;;;;7.14;100.00;101819.06;10521687;28;20063;-81
2023/03/27 08:58:44;;;;;;;0.00;0.00;;;;;;;6.41;100.00;101819.28;10528993;28;20097;-82
2023/03/27 09:04:11;;;;;;;0.30;0.10;;;;;;;7.44;100.00;101801.00;10537642;28;20048;-82
2023/03/27 09:09:45;;;;;;;0.28;0.28;;;;;;;7.12;100.00;101839.50;10500395;28;20044;-82
2023/03/27 09:14:57;;;;;;;0.00;0.00;;;;;;;7.33;100.00;101835.47;10529690;28;20082;-81
2023/03/27 09:20:06;;;;;;;0.00;0.00;;;;;;;7.36;100.00;101872.41;10526578;28;20044;-80
2023/03/27 09:25:30;;;;;;;0.00;0.00;;;;;;;7.78;100.00;101866.94;10534258;28;20052;-81
2023/03/27 09:30:32;;;;;;;0.00;0.00;;;;;;;8.09;100.00;101878.78;10557768;28;20045;-80
2023/03/27 09:35:43;;;;;;;0.03;0.03;;;;;;;8.05;100.00;101882.00;10544569;28;20135;-81
2023/03/27 09:40:53;;;;;;;0.00;0.00;;;;;;;7.18;100.00;101918.41;10571727;28;20467;-80
2023/03/27 09:45:59;;;;;;;0.00;0.00;;;;;;;8.50;100.00;101903.16;10554183;27;20043;-81
2023/03/27 09:51:01;;;;;;;0.00;0.00;;;;;;;7.21;100.00;101928.81;10535055;28;20040;-80
2023/03/27 09:56:13;;;;;;;0.00;0.00;;;;;;;3.11;100.00;101931.59;10541051;28;20044;-79
2023/03/27 10:01:33;;;;;;;0.00;0.00;;;;;;;2.85;100.00;101825.31;10533049;28;20077;-84
2023/03/27 10:07:04;;;;;;;0.10;0.08;;;;;;;3.76;100.00;101767.06;10527718;28;20070;-85
2023/03/27 10:12:22;;;;;;;0.00;0.00;;;;;;;5.30;100.00;101745.41;10514191;28;20043;-88
2023/03/27 10:17:34;;;;;;;0.00;0.00;;;;;;;5.61;100.00;101762.59;10526418;28;20411;-84
2023/03/27 10:22:54;;;;;;;0.00;0.00;;;;;;;6.31;100.00;101770.09;10508039;28;20036;-81
2023/03/27 10:28:20;;;;;;;0.03;0.00;;;;;;;7.07;100.00;101816.97;10534021;28;20070;-83
2023/03/27 10:33:44;;;;;;;0.00;0.00;;;;;;;7.21;100.00;101898.06;10553189;28;20024;-80
2023/03/27 10:39:02;;;;;;;0.38;0.25;;;;;;;7.78;100.00;101918.25;10550374;28;20044;-81
2023/03/27 10:44:17;;;;;;;;;;;;;;;7.56;100.00;101950.38;10510420;28;20105;-83
2023/03/27 10:49:35;;;;;;;0.00;0.00;;;;;;;8.13;100.00;101960.28;10535853;28;20290;-81
2023/03/27 10:55:07;;;;;;;0.45;0.45;;;;;;;7.92;100.00;101998.50;10550555;28;20043;-82
2023/03/27 11:00:21;;;;;;;0.00;0.00;;;;;;;8.10;100.00;101998.59;10540528;28;20067;-82
2023/03/27 11:05:43;;;;;;;0.00;0.00;;;;;;;8.08;100.00;102005.34;10530851;28;20086;-82
2023/03/27 11:11:02;;;;;;;0.00;0.00;;;;;;;7.54;100.00;101998.16;10536845;28;20127;-82
2023/03/27 11:16:25;;;;;;;0.00;0.00;;;;;;;4.23;100.00;102019.34;10531755;28;20048;-80
2023/03/27 11:22:18;;;;;;;0.00;0.00;;;;;;;1.88;100.00;101919.09;10536294;28;20040;-82
2023/03/27 11:28:01;;;;;;;0.00;0.00;;;;;;;3.45;100.00;101837.22;10518065;28;20055;-81
2023/03/27 11:33:25;;;;;;;0.00;0.00;;;;;;;4.33;100.00;101811.66;10479547;28;20040;-81
2023/03/27 11:38:41;;;;;;;0.00;0.00;;;;;;;4.52;100.00;101825.63;10517917;28;20274;-84
2023/03/27 11:43:43;;;;;;;0.00;0.00;;;;;;;4.35;100.00;101843.28;10523347;28;20044;-83
2023/03/27 11:49:38;;;;;;;0.00;0.00;;;;;;;3.23;100.00;101833.94;10535661;28;20415;-84
2023/03/27 11:55:05;;;;;;;0.00;0.00;;;;;;;3.47;100.00;101794.88;10533435;28;20052;-84
2023/03/27 12:00:24;;;;;;;0.38;0.32;;;;;;;3.98;100.00;101771.97;10522148;28;20105;-83
2023/03/27 12:06:05;;;;;;;0.00;0.00;;;;;;;4.48;100.00;101787.94;10554940;27;20486;-83
2023/03/27 12:11:13;;;;;;;3.75;0.43;;;;;;;5.64;100.00;101819.00;10538179;28;20044;-83
2023/03/27 12:16:32;;;;;;;0.00;0.00;;;;;;;6.68;100.00;101830.22;10545662;28;20047;-83
2023/03/27 12:22:09;;;;;;;0.00;0.00;;;;;;;6.39;100.00;101878.06;10512973;28;20046;-83
2023/03/27 12:27:46;;;;;;;0.20;0.15;;;;;;;7.55;100.00;101893.91;10524960;28;20135;-80
2023/03/27 12:33:04;;;;;;;0.00;0.00;;;;;;;7.81;100.00;101904.69;10560566;28;20048;-79
2023/03/27 12:38:37;;;;;;;0.13;0.10;;;;;;;7.95;100.00;101937.09;10513993;28;20055;-79
2023/03/27 12:43:45;;;;;;;0.00;0.00;;;;;;;8.42;100.00;101938.66;10520019;28;20032;-79
2023/03/27 12:49:00;;;;;;;0.00;0.00;;;;;;;8.92;100.00;101925.78;10537142;28;20518;-80
2023/03/27 12:54:26;;;;;;;0.00;0.00;;;;;;;7.07;100.00;101996.34;10544105;28;20044;-78
2023/03/27 12:59:57;;;;;;;0.00;0.00;;;;;;;6.96;100.00;102019.66;10539545;28;20389;-79
2023/03/27 13:05:09;;;;;;;0.00;0.00;;;;;;;6.71;100.00;102068.53;10519896;28;20510;-78
2023/03/27 13:10:48;;;;;;;0.00;0.00;;;;;;;8.49;100.00;102050.34;10526653;28;20040;-79
2023/03/27 13:16:12;;;;;;;0.00;0.00;;;;;;;8.45;100.00;102076.63;10545326;28;20028;-78
2023/03/27 13:21:31;;;;;;;3.20;0.63;;;;;;;8.30;100.00;102079.28;10545640;28;20494;-77
2023/03/27 13:26:45;;;;;;;0.25;0.25;;;;;;;7.26;100.00;102065.78;10546511;28;20123;-78
2023/03/27 13:31:48;;;;;;;0.00;0.00;;;;;;;7.70;100.00;102063.16;10585354;28;20039;-77
2023/03/27 13:37:13;;;;;;;2.63;0.45;;;;;;;7.22;100.00;102066.44;10531837;28;20052;-78
2023/03/27 13:42:23;;;;;;;0.00;0.00;;;;;;;6.77;100.00;102078.28;10547318;28;20126;-78
2023/03/27 13:47:51;;;;;;;0.00;0.00;;;;;;;7.23;100.00;102080.13;10539589;28;20453;-78
2023/03/27 13:53:05;;;;;;;0.00;0.00;;;;;;;7.80;100.00;102070.53;10526940;28;20036;-78
2023/03/27 13:58:43;;;;;;;0.00;0.00;;;;;;;6.44;100.00;102113.84;10527317;28;20475;-77
2023/03/27 14:04:02;;;;;;;0.03;0.03;;;;;;;6.76;100.00;102133.75;10557056;28;20035;-81
2023/03/27 14:09:41;;;;;;;0.00;0.00;;;;;;;8.05;100.00;102128.38;10543625;28;20438;-82
2023/03/27 14:15:12;;;;;;;0.00;0.00;;;;;;;7.79;100.00;102145.75;10539127;28;20481;-81
2023/03/27 14:20:22;;;;;;;0.00;0.00;;;;;;;7.84;100.00;102149.47;10534740;28;20143;-82
2023/03/27 14:25:37;;;;;;;1.55;0.80;;;;;;;8.81;100.00;102128.25;10526727;28;20514;-82
2023/03/27 14:30:55;;;;;;;0.00;0.00;;;;;;;8.53;100.00;102144.75;10550302;28;20050;-81
2023/03/27 14:36:24;;;;;;;0.00;0.00;;;;;;;7.30;100.00;102152.34;10560775;28;20082;-81
2023/03/27 14:41:28;;;;;;;0.20;0.20;;;;;;;5.84;100.00;102162.06;10546526;28;20044;-81
2023/03/27 14:46:34;;;;;;;0.38;0.25;;;;;;;4.24;100.00;102140.13;10512440;28;20548;-81
2023/03/27 14:51:46;;;;;;;0.00;0.00;;;;;;;3.77;100.00;102073.06;10504903;28;20123;-81
2023/03/27 14:57:07;;;;;;;10.40;2.53;;;;;;;4.20;100.00;102084.56;10519570;28;20113;-82
2023/03/27 15:02:30;;;;;;;0.00;0.00;;;;;;;4.40;100.00;102084.31;10521929;28;20040;-82
2023/03/27 15:07:36;;;;;;;0.00;0.00;;;;;;;5.68;100.00;102073.22;10532141;28;20437;-82
2023/03/27 15:12:47;;;;;;;0.00;0.00;;;;;;;5.61;100.00;102076.16;10530567;28;20043;-82
2023/03/27 15:17:53;;;;;;;0.00;0.00;;;;;;;6.18;100.00;102069.59;10526575;28;20527;-82
2023/03/27 15:23:08;;;;;;;0.00;0.00;;;;;;;6.01;100.00;102082.19;10515688;28;20453;-81
2023/03/27 15:28:23;;;;;;;0.00;0.00;;;;;;;6.07;100.00;102089.38;10521179;28;20048;-82
2023/03/27 15:33:33;;;;;;;0.00;0.00;;;;;;;6.18;100.00;102079.81;10542798;28;20071;-81
2023/03/27 15:38:36;;;;;;;;;;;;;;;6.10;100.00;102075.88;10539265;28;20044;-82
2023/03/27 15:43:37;;;;;;;0.00;0.00;;;;;;;6.48;100.00;102074.84;10544708;28;19923;-82
2023/03/27 15:48:54;;;;;;;0.00;0.00;;;;;;;6.51;100.00;102086.16;10519862;28;20036;-82
2023/03/27 15:53:58;;;;;;;0.00;0.00;;;;;;;7.04;100.00;102108.91;10539465;28;20479;-82
2023/03/27 15:59:03;;;;;;;0.08;0.08;;;;;;;6.85;100.00;102123.19;10558065;27;20112;-78
2023/03/27 16:04:11;;;;;;;0.00;0.00;;;;;;;7.04;100.00;102134.53;10530443;28;20083;-79
2023/03/27 16:09:28;;;;;;;0.00;0.00;;;;;;;7.05;100.00;102147.44;10536043;28;20061;-78
2023/03/27 16:14:39;;;;;;;0.00;0.00;;;;;;;7.03;100.00;102168.66;10540923;27;20043;-79
2023/03/27 16:19:42;;;;;;;0.00;0.00;;;;;;;7.33;100.00;102177.28;10508954;28;20748;-77
2023/03/27 16:24:44;;;;;;;0.00;0.00;;;;;;;6.37;100.00;102198.72;10534337;28;20055;-78
2023/03/27 16:29:47;;;;;;;0.00;0.00;;;;;;;6.10;100.00;102201.25;10522901;28;20070;-77
2023/03/27 16:34:52;;;;;;;0.00;0.00;;;;;;;5.80;100.00;102199.34;10521029;28;20467;-77
2023/03/27 16:39:54;;;;;;;0.00;0.00;;;;;;;5.63;100.00;102208.41;10532980;28;20384;-78
2023/03/27 16:44:56;;;;;;;0.00;0.00;;;;;;;5.56;100.00;102217.38;10539402;28;20048;-79
2023/03/27 16:49:58;;;;;;;0.00;0.00;;;;;;;5.68;100.00;102209.63;10535051;28;20047;-77
2023/03/27 16:55:12;;;;;;;0.00;0.00;;;;;;;5.98;100.00;102214.09;10536430;28;20044;-77
2023/03/27 17:00:15;;;;;;;0.00;0.00;;;;;;;6.04;100.00;102219.66;10519534;28;20044;-78
2023/03/27 17:05:17;;;;;;;1.15;0.32;;;;;;;5.80;100.00;102226.56;10537349;28;20040;-76
2023/03/27 17:10:18;;;;;;;0.00;0.00;;;;;;;6.14;100.00;102228.84;10522140;28;20044;-77
2023/03/27 17:15:20;;;;;;;0.00;0.00;;;;;;;6.51;100.00;102234.66;10529061;28;20523;-78
2023/03/27 17:20:23;;;;;;;0.20;0.20;;;;;;;6.21;100.00;102253.13;10505821;28;20036;-77
2023/03/27 17:25:24;;;;;;;0.00;0.00;;;;;;;5.86;100.00;102260.22;10519447;28;20163;-77
2023/03/27 17:30:26;;;;;;;0.52;0.35;;;;;;;5.46;100.00;102265.19;10530494;28;20047;-78
2023/03/27 17:35:41;;;;;;;0.00;0.00;;;;;;;5.07;100.00;102276.19;10517140;28;20445;-79
2023/03/27 17:40:43;;;;;;;0.10;0.10;;;;;;;5.06;100.00;102279.53;10553670;28;20483;-79
2023/03/27 17:45:49;;;;;;;0.00;0.00;;;;;;;4.98;100.00;102283.19;10547981;28;20089;-78
2023/03/27 17:50:54;;;;;;;0.30;0.20;;;;;;;4.76;100.00;102291.88;10526136;28;20377;-76
2023/03/27 17:56:09;;;;;;;6.63;0.55;;;;;;;4.74;100.00;102307.88;10507611;28;20105;-77
2023/03/27 18:01:17;;;;;;;0.00;0.00;;;;;;;4.49;100.00;102289.91;10517647;28;20071;-77
2023/03/27 18:06:19;;;;;;;0.00;0.00;;;;;;;4.27;100.00;102283.22;10530229;28;20058;-78
2023/03/27 18:11:21;;;;;;;0.00;0.00;;;;;;;4.20;100.00;102281.00;10516178;28;20036;-79
2023/03/27 18:16:22;;;;;;;0.00;0.00;;;;;;;4.12;100.00;102283.88;10554598;28;20058;-78
2023/03/27 18:21:24;;;;;;;0.00;0.00;;;;;;;4.01;100.00;102289.81;10529808;28;20044;-77
2023/03/27 18:26:26;;;;;;;0.30;0.20;;;;;;;3.92;100.00;102291.66;10512679;28;20113;-77
2023/03/27 18:31:28;;;;;;;0.00;0.00;;;;;;;4.02;100.00;102301.78;10569127;27;20040;-78
2023/03/27 18:36:30;;;;;;;2.08;0.32;;;;;;;3.93;100.00;102308.75;10543623;28;20257;-77
2023/03/27 18:41:32;;;;;;;0.00;0.00;;;;;;;3.81;100.00;102312.16;10569591;28;20271;-78
2023/03/27 18:46:34;;;;;;;0.25;0.20;;;;;;;3.70;100.00;102307.88;10521643;28;20082;-78
2023/03/27 18:51:36;;;;;;;0.00;0.00;;;;;;;3.76;100.00;102312.56;10536788;28;20072;-78
2023/03/27 18:56:41;;;;;;;0.00;0.00;;;;;;;3.45;100.00;102310.22;10553939;28;20096;-78
2023/03/27 19:01:42;;;;;;;0.00;0.00;;;;;;;3.42;100.00;102310.88;10525860;28;20493;-78
2023/03/27 19:06:45;;;;;;;0.00;0.00;;;;;;;3.47;100.00;102309.56;10538725;28;20032;-78
2023/03/27 19:11:47;;;;;;;0.00;0.00;;;;;;;3.25;100.00;102311.19;10527378;28;20040;-77
2023/03/27 19:17:07;;;;;;;0.00;0.00;;;;;;;3.22;100.00;102314.41;10546877;28;20056;-77
2023/03/27 19:22:27;;;;;;;0.00;0.00;;;;;;;3.01;100.00;102295.78;10528056;28;20491;-78
2023/03/27 19:27:40;;;;;;;0.00;0.00;;;;;;;3.00;100.00;102294.00;10535118;28;20050;-78
2023/03/27 19:32:41;;;;;;;0.00;0.00;;;;;;;2.80;100.00;102295.84;10519303;28;20043;-78
2023/03/27 19:37:44;;;;;;;0.00;0.00;;;;;;;2.75;100.00;102286.97;10524715;28;20040;-77
2023/03/27 19:42:47;;;;;;;0.00;0.00;;;;;;;2.76;100.00;102283.66;10534268;28;20545;-78
2023/03/27 19:47:48;;;;;;;0.00;0.00;;;;;;;2.59;100.00;102289.03;10503894;28;20506;-78
2023/03/27 19:52:50;;;;;;;0.00;0.00;;;;;;;2.48;100.00;102286.53;10518259;28;20567;-79
2023/03/27 19:58:08;;;;;;;0.40;0.08;;;;;;;2.53;100.00;102280.16;10517591;28;20109;-78
2023/03/27 20:03:12;;;;;;;0.00;0.00;;;;;;;2.33;100.00;102300.53;10534362;28;20043;-78
2023/03/27 20:08:15;;;;;;;0.00;0.00;;;;;;;2.47;100.00;102294.00;10544136;28;20083;-76
2023/03/27 20:13:17;;;;;;;0.03;0.03;;;;;;;2.54;100.00;102297.19;10516503;28;20051;-77
2023/03/27 20:18:21;;;;;;;0.00;0.00;;;;;;;2.32;100.00;102286.03;10529739;28;20040;-78
2023/03/27 20:23:30;;;;;;;0.00;0.00;;;;;;;2.35;100.00;102278.63;10513535;28;20040;-78
2023/03/27 20:28:33;;;;;;;;;;;;;;;2.04;100.00;102291.41;10502387;28;20067;-78
2023/03/27 20:33:34;;;;;;;0.00;0.00;;;;;;;1.78;100.00;102271.44;10528883;28;20010;-78
2023/03/27 20:38:36;;;;;;;0.00;0.00;;;;;;;1.72;100.00;102264.19;10548501;28;20100;-78
2023/03/27 20:43:43;;;;;;;0.00;0.00;;;;;;;1.70;100.00;102248.81;10538486;28;20080;-77
2023/03/27 20:48:45;;;;;;;0.00;0.00;;;;;;;1.66;100.00;102245.91;10542350;28;20044;-78
2023/03/27 20:53:56;;;;;;;0.00;0.00;;;;;;;1.44;100.00;102249.19;10551745;28;20040;-78
2023/03/27 20:58:57;;;;;;;0.00;0.00;;;;;;;1.43;100.00;102234.69;10524235;28;20052;-78
2023/03/27 21:04:01;;;;;;;0.00;0.00;;;;;;;1.50;100.00;102242.06;10533504;28;20437;-78
2023/03/27 21:09:03;;;;;;;0.00;0.00;;;;;;;1.48;100.00;102238.50;10510588;28;20051;-77
2023/03/27 21:14:05;;;;;;;0.10;0.10;;;;;;;1.31;100.00;102242.16;10555763;28;20047;-77
2023/03/27 21:19:09;;;;;;;0.00;0.00;;;;;;;1.42;100.00;102233.78;10542541;28;20097;-77
2023/03/27 21:24:12;;;;;;;0.00;0.00;;;;;;;1.47;100.00;102230.75;10528235;28;20438;-77
2023/03/27 21:29:14;;;;;;;0.00;0.00;;;;;;;1.38;100.00;102228.31;10524197;28;20044;-76
2023/03/27 21:34:16;;;;;;;0.00;0.00;;;;;;;1.07;100.00;102233.34;10526767;28;20066;-78
2023/03/27 21:39:18;;;;;;;0.00;0.00;;;;;;;0.86;100.00;102218.03;10515193;28;20105;-77
2023/03/27 21:44:19;;;;;;;0.47;0.47;;;;;;;0.78;100.00;102211.44;10525843;28;20401;-77
2023/03/27 21:49:21;;;;;;;0.03;0.03;;;;;;;0.98;100.00;102209.72;10501213;28;20047;-77
2023/03/27 21:54:23;;;;;;;0.00;0.00;;;;;;;0.96;100.00;102207.06;10512497;28;20225;-77
2023/03/27 21:59:26;;;;;;;0.00;0.00;;;;;;;0.88;100.00;102214.00;10528257;28;20449;-77
2023/03/27 22:04:27;;;;;;;0.00;0.00;;;;;;;0.92;100.00;102205.00;10509546;28;20089;-77
2023/03/27 22:09:29;;;;;;;0.00;0.00;;;;;;;1.34;100.00;102211.06;10536163;28;20044;-77
2023/03/27 22:14:34;;;;;;;0.00;0.00;;;;;;;1.31;100.00;102226.03;10561966;28;20040;-77
2023/03/27 22:19:35;;;;;;;0.00;0.00;;;;;;;1.41;100.00;102228.59;10557165;28;20122;-77
2023/03/27 22:24:37;;;;;;;0.10;0.10;;;;;;;1.40;100.00;102222.63;10537655;28;20487;-77
2023/03/27 22:29:39;;;;;;;0.03;0.03;;;;;;;1.39;100.00;102225.94;10526828;28;20047;-77
2023/03/27 22:34:40;;;;;;;0.00;0.00;;;;;;;1.52;100.00;102225.31;10575112;27;20036;-78
2023/03/27 22:39:42;;;;;;;0.00;0.00;;;;;;;1.67;100.00;102228.22;10527486;28;20085;-77
2023/03/27 22:44:44;;;;;;;0.28;0.20;;;;;;;1.72;100.00;102256.56;10565724;28;20040;-77
2023/03/27 22:49:45;;;;;;;0.57;0.35;;;;;;;1.99;100.00;102229.09;10522872;28;20040;-78
2023/03/27 22:54:47;;;;;;;0.52;0.30;;;;;;;2.10;100.00;102209.66;10530591;28;20109;-78
2023/03/27 22:59:49;;;;;;;0.00;0.00;;;;;;;1.93;100.00;102201.56;10537117;28;20491;-78
2023/03/27 23:04:51;;;;;;;0.00;0.00;;;;;;;1.99;100.00;102190.97;10533241;28;20044;-78
2023/03/27 23:09:52;;;;;;;0.20;0.20;;;;;;;1.84;100.00;102188.97;10540565;28;20068;-80
2023/03/27 23:14:54;;;;;;;0.00;0.00;;;;;;;1.38;100.00;102193.66;10547940;28;20126;-80
2023/03/27 23:19:56;;;;;;;0.32;0.28;;;;;;;1.05;100.00;102191.72;10558033;28;20047;-79
2023/03/27 23:24:57;;;;;;;0.00;0.00;;;;;;;0.92;100.00;102184.69;10519188;28;20048;-79
2023/03/27 23:29:59;;;;;;;0.00;0.00;;;;;;;0.87;100.00;102191.91;10526013;28;20071;-80
2023/03/27 23:35:01;;;;;;;0.10;0.10;;;;;;;0.79;100.00;102197.97;10509476;28;20047;-79
2023/03/27 23:40:03;;;;;;;0.00;0.00;;;;;;;0.71;100.00;102197.31;10528059;28;20153;-79
2023/03/27 23:45:06;;;;;;;0.00;0.00;;;;;;;0.56;100.00;102209.53;10529828;28;20050;-79